createdAt,value
2022-09-14T00:01:25.640Z,1.38
2022-09-14T00:04:00.936Z,1.38
2022-09-14T00:06:29.053Z,1.00
2022-09-14T00:08:58.096Z,1.10
2022-09-14T00:11:26.307Z,1.30
2022-09-14T00:13:53.450Z,1.10
2022-09-14T00:16:23.175Z,1.27
2022-09-14T00:18:54.982Z,1.00
2022-09-14T00:21:23.055Z,1.00
2022-09-14T00:23:49.849Z,1.30
2022-09-14T00:26:20.847Z,1.35
2022-09-14T00:28:50.716Z,1.10
2022-09-14T00:31:18.099Z,1.25
2022-09-14T00:33:49.644Z,1.20
2022-09-14T00:36:19.629Z,1.05
2022-09-14T00:38:48.064Z,0.98
2022-09-14T00:41:18.902Z,1.40
2022-09-14T00:43:51.731Z,1.38
2022-09-14T00:46:18.560Z,1.10
2022-09-14T00:48:45.326Z,1.42
2022-09-14T00:51:12.739Z,1.50
2022-09-14T00:53:39.992Z,1.55
2022-09-14T00:56:07.268Z,1.58
2022-09-14T00:58:33.985Z,1.50
2022-09-14T01:01:02.437Z,1.30
2022-09-14T01:03:29.162Z,1.30
2022-09-14T01:06:13.790Z,1.40
2022-09-14T01:08:48.101Z,1.20
2022-09-14T01:11:53.899Z,1.48
2022-09-14T01:14:59.238Z,1.60
2022-09-14T01:17:44.058Z,1.25
2022-09-14T01:20:22.961Z,1.33
2022-09-14T01:22:58.997Z,1.27
2022-09-14T01:25:59.543Z,1.67
2022-09-14T01:29:05.111Z,1.50
2022-09-14T01:31:44.372Z,1.40
2022-09-14T01:34:36.740Z,1.20
2022-09-14T01:37:14.810Z,1.27
2022-09-14T01:39:48.799Z,1.63
2022-09-14T01:42:20.923Z,1.20
2022-09-14T01:44:52.711Z,1.50
2022-09-14T01:47:27.458Z,1.50
2022-09-14T01:50:01.246Z,1.40
2022-09-14T01:52:39.829Z,1.33
2022-09-14T01:55:14.020Z,1.23
2022-09-14T01:57:50.070Z,1.23
2022-09-14T02:00:19.100Z,1.17
2022-09-14T02:03:11.097Z,1.33
2022-09-14T02:06:07.076Z,1.50
2022-09-14T02:08:34.271Z,1.35
2022-09-14T02:11:01.889Z,1.48
2022-09-14T02:13:29.234Z,1.38
2022-09-14T02:15:56.188Z,1.50
2022-09-14T02:18:23.012Z,1.40
2022-09-14T02:20:57.298Z,1.50
2022-09-14T02:23:24.144Z,1.10
2022-09-14T02:25:51.409Z,1.20
2022-09-14T02:28:21.474Z,1.40
2022-09-14T02:31:36.250Z,1.23
2022-09-14T02:34:13.402Z,1.38
2022-09-14T02:37:00.755Z,1.10
2022-09-14T02:39:38.856Z,1.30
2022-09-14T02:42:31.205Z,1.27
2022-09-14T02:45:07.850Z,1.13
2022-09-14T02:47:49.166Z,1.42
2022-09-14T02:50:49.588Z,1.25
2022-09-14T02:53:44.337Z,1.10
2022-09-14T02:56:12.408Z,1.38
2022-09-14T02:58:41.818Z,1.35
2022-09-14T03:01:11.156Z,1.20
2022-09-14T03:03:37.859Z,1.23
2022-09-14T03:06:05.228Z,1.25
2022-09-14T03:08:32.272Z,1.05
2022-09-14T03:10:59.274Z,1.30
2022-09-14T03:13:25.957Z,1.08
2022-09-14T03:15:53.516Z,0.90
2022-09-14T03:18:20.526Z,0.90
2022-09-14T03:20:47.289Z,1.17
2022-09-14T03:23:14.282Z,1.20
2022-09-14T03:25:44.767Z,1.00
2022-09-14T03:28:12.794Z,1.13
2022-09-14T03:30:39.682Z,1.40
2022-09-14T03:33:06.475Z,1.20
2022-09-14T03:35:33.850Z,1.35
2022-09-14T03:38:03.045Z,1.30
2022-09-14T03:40:29.991Z,1.17
2022-09-14T03:42:56.655Z,1.08
2022-09-14T03:45:23.399Z,1.40
2022-09-14T03:47:50.420Z,1.10
2022-09-14T03:50:18.545Z,1.20
2022-09-14T03:52:45.404Z,1.05
2022-09-14T03:55:12.180Z,1.33
2022-09-14T03:57:38.902Z,0.95
2022-09-14T04:00:07.706Z,1.50
2022-09-14T04:02:41.108Z,1.08
2022-09-14T04:05:08.388Z,1.20
2022-09-14T04:07:35.943Z,1.17
2022-09-14T04:10:03.252Z,1.20
2022-09-14T04:12:34.856Z,1.13
2022-09-14T04:15:02.267Z,1.27
2022-09-14T04:17:29.661Z,1.55
2022-09-14T04:19:58.379Z,1.40
2022-09-14T04:22:26.317Z,1.40
2022-09-14T04:24:53.731Z,1.50
2022-09-14T04:27:20.385Z,1.20
2022-09-14T04:29:50.280Z,1.50
2022-09-14T04:32:17.314Z,1.10
2022-09-14T04:34:43.966Z,1.52
2022-09-14T04:37:10.660Z,1.40
2022-09-14T04:39:37.311Z,1.17
2022-09-14T04:42:04.383Z,1.13
2022-09-14T04:44:31.066Z,1.20
2022-09-14T04:46:57.775Z,1.38
2022-09-14T04:49:25.546Z,1.30
2022-09-14T04:51:52.513Z,1.27
2022-09-14T04:54:19.272Z,1.35
2022-09-14T04:56:46.158Z,1.33
2022-09-14T04:59:12.963Z,1.92
2022-09-14T05:01:41.951Z,1.30
2022-09-14T05:04:09.356Z,1.38
2022-09-14T05:06:38.339Z,1.33
2022-09-14T05:09:09.908Z,1.20
2022-09-14T05:11:37.545Z,1.30
2022-09-14T05:14:04.801Z,1.35
2022-09-14T05:16:36.428Z,1.27
2022-09-14T05:19:06.021Z,1.40
2022-09-14T05:21:34.788Z,1.50
2022-09-14T05:24:08.096Z,1.30
2022-09-14T05:26:34.854Z,1.40
2022-09-14T05:29:02.526Z,1.50
2022-09-14T05:31:31.206Z,1.73
2022-09-14T05:33:58.705Z,1.77
2022-09-14T05:36:25.955Z,1.38
2022-09-14T05:38:53.080Z,1.27
2022-09-14T05:41:19.762Z,1.40
2022-09-14T05:43:46.474Z,1.17
2022-09-14T05:46:16.325Z,1.40
2022-09-14T05:48:43.698Z,1.40
2022-09-14T05:51:19.065Z,1.58
2022-09-14T05:53:53.970Z,1.45
2022-09-14T05:56:22.350Z,1.40
2022-09-14T05:58:49.749Z,1.48
2022-09-14T06:01:21.711Z,1.45
2022-09-14T06:03:49.212Z,1.45
2022-09-14T06:06:19.399Z,1.10
2022-09-14T06:08:47.968Z,1.10
2022-09-14T06:11:17.486Z,1.40
2022-09-14T06:13:46.695Z,1.50
2022-09-14T06:16:15.453Z,1.40
2022-09-14T06:18:43.371Z,1.10
2022-09-14T06:21:15.031Z,1.15
2022-09-14T06:23:42.024Z,1.60
2022-09-14T06:26:08.962Z,1.10
2022-09-14T06:28:35.963Z,1.27
2022-09-14T06:31:04.489Z,1.30
2022-09-14T06:33:31.960Z,1.30
2022-09-14T06:36:04.563Z,0.95
2022-09-14T06:38:31.224Z,0.88
2022-09-14T06:40:59.771Z,1.20
2022-09-14T06:43:28.360Z,1.02
2022-09-14T06:46:02.309Z,1.38
2022-09-14T06:48:30.991Z,1.35
2022-09-14T06:50:58.231Z,1.10
2022-09-14T06:53:25.148Z,1.30
2022-09-14T06:55:52.328Z,1.65
2022-09-14T06:58:19.032Z,1.17
2022-09-14T07:00:45.683Z,1.20
2022-09-14T07:03:12.432Z,1.30
2022-09-14T07:05:39.181Z,1.30
2022-09-14T07:08:10.179Z,1.38
2022-09-14T07:10:38.711Z,1.20
2022-09-14T07:13:05.415Z,1.35
2022-09-14T07:15:33.214Z,1.30
2022-09-14T07:17:59.849Z,1.10
2022-09-14T07:20:26.516Z,1.48
2022-09-14T07:22:53.176Z,1.27
2022-09-14T07:25:19.844Z,1.40
2022-09-14T07:27:46.570Z,1.23
2022-09-14T07:30:13.285Z,1.50
2022-09-14T07:32:40.338Z,1.33
2022-09-14T07:35:08.148Z,1.50
2022-09-14T07:37:34.803Z,1.40
2022-09-14T07:40:01.711Z,1.15
2022-09-14T07:42:28.393Z,1.45
2022-09-14T07:44:55.084Z,1.58
2022-09-14T07:47:21.745Z,1.48
2022-09-14T07:49:48.416Z,1.58
2022-09-14T07:52:15.068Z,1.40
2022-09-14T07:54:41.848Z,1.40
2022-09-14T07:57:08.672Z,1.20
2022-09-14T07:59:36.899Z,1.90
2022-09-14T08:02:08.786Z,1.40
2022-09-14T08:04:36.274Z,1.45
2022-09-14T08:07:03.692Z,1.40
2022-09-14T08:09:30.404Z,1.30
2022-09-14T08:11:57.810Z,1.58
2022-09-14T08:14:24.884Z,1.48
2022-09-14T08:16:51.987Z,1.38
2022-09-14T08:19:20.773Z,1.60
2022-09-14T08:21:48.190Z,1.42
2022-09-14T08:24:20.070Z,1.60
2022-09-14T08:26:47.860Z,1.27
2022-09-14T08:29:16.304Z,1.55
2022-09-14T08:31:45.304Z,1.52
2022-09-14T08:34:12.113Z,1.30
2022-09-14T08:36:40.617Z,1.40
2022-09-14T08:39:10.481Z,1.35
2022-09-14T08:41:51.580Z,1.40
2022-09-14T08:44:24.239Z,1.73
2022-09-14T08:47:19.169Z,1.80
2022-09-14T08:50:00.861Z,1.50
2022-09-14T08:52:38.384Z,1.50
2022-09-14T08:55:23.718Z,1.38
2022-09-14T08:58:08.099Z,1.42
2022-09-14T09:00:42.613Z,1.40
2022-09-14T09:03:24.461Z,1.42
2022-09-14T09:06:17.682Z,1.30
2022-09-14T09:09:02.658Z,1.50
2022-09-14T09:11:37.658Z,1.77
2022-09-14T09:14:19.721Z,1.60
2022-09-14T09:16:50.458Z,1.48
2022-09-14T09:19:32.598Z,1.40
2022-09-14T09:22:03.140Z,1.42
2022-09-14T09:24:50.459Z,1.40
2022-09-14T09:27:17.180Z,1.42
2022-09-14T09:29:44.477Z,1.40
2022-09-14T09:32:23.250Z,1.20
2022-09-14T09:34:50.305Z,1.58
2022-09-14T09:37:39.564Z,1.80
2022-09-14T09:40:18.475Z,1.50
2022-09-14T09:43:12.030Z,1.80
2022-09-14T09:45:57.680Z,1.55
2022-09-14T09:48:28.176Z,1.70
2022-09-14T09:51:24.598Z,2.05
2022-09-14T09:54:11.962Z,1.40
2022-09-14T09:56:54.650Z,1.80
2022-09-14T09:59:50.057Z,1.80
2022-09-14T10:02:25.678Z,1.55
2022-09-14T10:05:09.642Z,1.40
2022-09-14T10:07:56.215Z,1.73
2022-09-14T10:10:39.488Z,1.48
2022-09-14T10:13:22.876Z,1.60
2022-09-14T10:15:50.076Z,1.63
2022-09-14T10:18:18.845Z,1.60
2022-09-14T10:20:54.911Z,1.60
2022-09-14T10:23:23.169Z,1.50
2022-09-14T10:25:54.173Z,1.40
2022-09-14T10:28:27.984Z,1.50
2022-09-14T10:31:02.664Z,1.20
2022-09-14T10:33:30.188Z,1.50
2022-09-14T10:35:56.829Z,1.50
2022-09-14T10:38:35.290Z,1.70
2022-09-14T10:41:15.855Z,1.50
2022-09-14T10:43:48.815Z,1.50
2022-09-14T10:46:21.516Z,1.63
2022-09-14T10:49:21.238Z,1.70
2022-09-14T10:52:11.498Z,1.92
2022-09-14T10:54:56.786Z,1.63
2022-09-14T10:57:50.020Z,1.70
2022-09-14T11:00:19.869Z,1.60
2022-09-14T11:03:02.531Z,1.55
2022-09-14T11:05:39.528Z,1.40
2022-09-14T11:08:24.432Z,1.83
2022-09-14T11:11:19.420Z,1.67
2022-09-14T11:14:20.706Z,1.50
2022-09-14T11:17:05.084Z,1.75
2022-09-14T11:19:53.663Z,1.42
2022-09-14T11:22:52.999Z,1.40
2022-09-14T11:25:29.661Z,1.60
2022-09-14T11:28:17.912Z,1.40
2022-09-14T11:31:00.626Z,1.48
2022-09-14T11:33:46.667Z,1.75
2022-09-14T11:36:28.283Z,1.80
2022-09-14T11:39:36.573Z,1.60
2022-09-14T11:42:09.215Z,1.65
2022-09-14T11:44:39.281Z,1.60
2022-09-14T11:47:07.706Z,1.55
2022-09-14T11:49:39.775Z,1.58
2022-09-14T11:52:25.234Z,1.83
2022-09-14T11:54:53.047Z,1.80
2022-09-14T11:57:31.920Z,1.90
2022-09-14T12:00:02.514Z,1.67
2022-09-14T12:02:37.692Z,1.60
2022-09-14T12:05:07.199Z,1.33
2022-09-14T12:07:42.179Z,1.83
2022-09-14T12:10:15.158Z,1.67
2022-09-14T12:12:53.714Z,1.42
2022-09-14T12:15:26.289Z,1.58
2022-09-14T12:18:05.504Z,1.30
2022-09-14T12:20:42.992Z,1.42
2022-09-14T12:23:38.739Z,1.83
2022-09-14T12:26:24.171Z,1.83
2022-09-14T12:28:53.629Z,1.70
2022-09-14T12:31:55.340Z,1.35
2022-09-14T12:34:31.975Z,1.67
2022-09-14T12:37:30.131Z,1.48
2022-09-14T12:40:21.474Z,1.77
2022-09-14T12:42:48.370Z,1.83
2022-09-14T12:46:00.325Z,1.20
2022-09-14T12:48:46.454Z,1.55
2022-09-14T12:51:39.452Z,1.30
2022-09-14T12:54:09.137Z,1.50
2022-09-14T12:56:53.210Z,1.27
2022-09-14T12:59:38.635Z,1.30
2022-09-14T13:02:23.702Z,1.60
2022-09-14T13:04:56.350Z,1.55
2022-09-14T13:07:26.032Z,1.30
2022-09-14T13:09:55.324Z,1.27
2022-09-14T13:12:32.087Z,1.48
2022-09-14T13:15:03.810Z,1.17
2022-09-14T13:17:30.499Z,1.63
2022-09-14T13:20:00.150Z,1.30
2022-09-14T13:22:34.520Z,1.55
2022-09-14T13:25:01.500Z,1.42
2022-09-14T13:27:34.853Z,1.60
2022-09-14T13:30:20.919Z,1.27
2022-09-14T13:32:50.777Z,1.45
2022-09-14T13:35:30.254Z,1.20
2022-09-14T13:37:59.597Z,2.17
2022-09-14T13:40:29.902Z,1.50
2022-09-14T13:42:59.218Z,1.42
2022-09-14T13:45:26.421Z,1.38
2022-09-14T13:47:54.282Z,1.23
2022-09-14T13:50:25.280Z,1.50
2022-09-14T13:53:08.320Z,1.60
2022-09-14T13:55:34.961Z,1.20
2022-09-14T13:58:20.386Z,1.38
2022-09-14T14:00:54.231Z,1.20
2022-09-14T14:03:48.512Z,1.15
2022-09-14T14:06:21.062Z,1.30
2022-09-14T14:11:28.463Z,0.80
2022-09-14T14:13:55.144Z,0.80
2022-09-14T14:16:24.945Z,0.95
2022-09-14T14:18:54.335Z,0.75
2022-09-14T14:21:24.775Z,0.98
2022-09-14T14:24:11.982Z,0.70
2022-09-14T14:26:46.987Z,0.80
2022-09-14T14:29:16.173Z,0.95
2022-09-14T14:31:43.126Z,1.20
2022-09-14T14:34:28.934Z,0.75
2022-09-14T14:36:56.135Z,1.48
2022-09-14T14:39:25.247Z,1.05
2022-09-14T14:41:52.441Z,0.98
2022-09-14T14:44:28.178Z,0.88
2022-09-14T14:46:56.395Z,1.67
2022-09-14T14:49:23.773Z,1.30
2022-09-14T14:51:51.013Z,1.30
2022-09-14T14:54:18.532Z,1.38
2022-09-14T14:56:47.158Z,1.50
2022-09-14T14:59:19.914Z,1.08
2022-09-14T15:01:47.355Z,1.20
2022-09-14T15:04:14.666Z,1.10
2022-09-14T15:06:41.715Z,1.02
2022-09-14T15:09:25.224Z,1.00
2022-09-14T15:11:54.408Z,1.23
2022-09-14T15:14:26.942Z,1.42
2022-09-14T15:16:57.820Z,1.02
2022-09-14T15:19:25.688Z,1.25
2022-09-14T15:21:53.169Z,1.05
2022-09-14T15:24:22.444Z,0.90
2022-09-14T15:26:49.097Z,1.00
2022-09-14T15:29:18.218Z,0.80
2022-09-14T15:31:44.919Z,0.93
2022-09-14T15:34:11.894Z,1.00
2022-09-14T15:36:39.988Z,1.00
2022-09-14T15:39:08.415Z,0.95
2022-09-14T15:41:35.103Z,0.80
2022-09-14T15:44:03.687Z,0.82
2022-09-14T15:46:31.298Z,0.93
2022-09-14T15:48:58.920Z,1.00
2022-09-14T15:51:25.605Z,1.10
2022-09-14T15:53:52.908Z,1.00
2022-09-14T15:56:19.975Z,1.50
2022-09-14T15:58:48.256Z,0.80
2022-09-14T16:01:17.270Z,1.10
2022-09-14T16:03:44.299Z,0.93
2022-09-14T16:06:12.541Z,1.20
2022-09-14T16:08:40.210Z,1.20
2022-09-14T16:11:08.481Z,0.90
2022-09-14T16:13:35.677Z,1.00
2022-09-14T16:16:04.152Z,1.02
2022-09-14T16:18:31.394Z,1.13
2022-09-14T16:21:07.926Z,0.88
2022-09-14T16:23:42.590Z,1.08
2022-09-14T16:26:15.841Z,0.98
2022-09-14T16:28:44.094Z,1.15
2022-09-14T16:31:17.514Z,1.30
2022-09-14T16:33:51.102Z,1.20
2022-09-14T16:36:20.911Z,1.20
2022-09-14T16:38:47.616Z,1.13
2022-09-14T16:41:15.080Z,1.20
2022-09-14T16:43:42.069Z,1.13
2022-09-14T16:46:16.607Z,0.95
2022-09-14T16:48:46.136Z,1.27
2022-09-14T16:51:14.420Z,1.15
2022-09-14T16:53:46.464Z,1.02
2022-09-14T16:56:16.538Z,1.08
2022-09-14T16:58:44.470Z,1.38
2022-09-14T17:01:26.763Z,1.23
2022-09-14T17:03:54.894Z,0.95
2022-09-14T17:06:28.461Z,1.23
2022-09-14T17:08:57.730Z,1.02
2022-09-14T17:11:24.509Z,0.98
2022-09-14T17:13:51.518Z,0.88
2022-09-14T17:16:20.936Z,1.23
2022-09-14T17:18:49.696Z,0.90
2022-09-14T17:21:19.573Z,1.15
2022-09-14T17:23:46.916Z,1.38
2022-09-14T17:26:17.622Z,1.05
2022-09-14T17:28:47.135Z,1.30
2022-09-14T17:31:16.401Z,1.30
2022-09-14T17:33:43.158Z,1.40
2022-09-14T17:36:09.906Z,1.30
2022-09-14T17:38:41.166Z,1.23
2022-09-14T17:41:10.972Z,1.42
2022-09-14T17:43:38.763Z,1.30
2022-09-14T17:46:07.918Z,1.23
2022-09-14T17:48:36.569Z,1.50
2022-09-14T17:51:08.413Z,1.58
2022-09-14T17:53:39.576Z,1.45
2022-09-14T17:56:07.919Z,1.20
2022-09-14T17:58:35.871Z,1.38
2022-09-14T18:01:09.229Z,1.45
2022-09-14T18:03:41.332Z,1.65
2022-09-14T18:06:10.245Z,1.50
2022-09-14T18:08:37.908Z,1.70
2022-09-14T18:11:16.639Z,1.70
2022-09-14T18:13:45.122Z,1.70
2022-09-14T18:16:13.448Z,1.60
2022-09-14T18:18:40.506Z,1.55
2022-09-14T18:21:08.117Z,1.48
2022-09-14T18:23:35.582Z,1.48
2022-09-14T18:26:03.853Z,1.60
2022-09-14T18:28:30.893Z,1.70
2022-09-14T18:31:06.483Z,1.90
2022-09-14T18:33:33.619Z,1.65
2022-09-14T18:36:00.476Z,1.90
2022-09-14T18:38:28.760Z,1.77
2022-09-14T18:41:01.906Z,1.70
2022-09-14T18:43:28.586Z,1.80
2022-09-14T18:45:55.453Z,1.67
2022-09-14T18:48:22.242Z,1.63
2022-09-14T18:50:48.923Z,1.60
2022-09-14T18:53:15.694Z,1.80
2022-09-14T18:55:42.350Z,1.65
2022-09-14T18:58:09.443Z,1.80
2022-09-14T19:00:37.319Z,1.58
2022-09-14T19:03:04.265Z,1.65
2022-09-14T19:05:31.809Z,2.03
2022-09-14T19:07:58.606Z,1.60
2022-09-14T19:10:25.783Z,1.80
2022-09-14T19:12:52.546Z,1.30
2022-09-14T19:15:19.294Z,1.52
2022-09-14T19:17:46.069Z,1.42
2022-09-14T19:20:12.804Z,1.70
2022-09-14T19:22:39.473Z,1.77
2022-09-14T19:25:06.669Z,1.50
2022-09-14T19:27:33.325Z,1.42
2022-09-14T19:30:01.083Z,1.25
2022-09-14T19:32:27.948Z,1.10
2022-09-14T19:34:55.065Z,1.23
2022-09-14T19:37:22.320Z,1.15
2022-09-14T19:39:49.241Z,1.25
2022-09-14T19:42:15.945Z,1.35
2022-09-14T19:44:42.742Z,1.50
2022-09-14T19:47:09.412Z,1.30
2022-09-14T19:49:36.081Z,1.00
2022-09-14T19:52:03.208Z,1.00
2022-09-14T19:54:29.980Z,1.05
2022-09-14T19:56:56.701Z,0.90
2022-09-14T19:59:23.931Z,1.00
2022-09-14T20:01:50.999Z,1.13
2022-09-14T20:04:22.322Z,1.30
2022-09-14T20:06:49.036Z,1.10
2022-09-14T20:09:21.274Z,1.10
2022-09-14T20:11:50.500Z,0.93
2022-09-14T20:14:20.240Z,1.40
2022-09-14T20:16:52.885Z,1.45
2022-09-14T20:21:49.002Z,1.50
2022-09-14T20:24:25.381Z,1.00
2022-09-14T20:26:59.312Z,1.17
2022-09-14T20:29:30.066Z,1.27
2022-09-14T20:31:58.070Z,1.13
2022-09-14T20:34:24.885Z,1.20
2022-09-14T20:36:52.696Z,1.20
2022-09-14T20:39:21.461Z,1.60
2022-09-14T20:41:48.706Z,1.20
2022-09-14T20:44:15.896Z,1.17
2022-09-14T20:46:44.681Z,1.30
2022-09-14T20:49:13.729Z,1.20
2022-09-14T20:51:41.192Z,1.05
2022-09-14T20:54:10.936Z,1.45
2022-09-14T20:56:39.531Z,1.48
2022-09-14T20:59:09.633Z,1.00
2022-09-14T21:01:38.423Z,1.23
2022-09-14T21:04:09.050Z,1.08
2022-09-14T21:06:39.161Z,1.20
2022-09-14T21:09:06.758Z,1.35
2022-09-14T21:11:34.254Z,1.42
2022-09-14T21:14:01.276Z,1.30
2022-09-14T21:16:31.291Z,1.40
2022-09-14T21:19:00.790Z,1.17
2022-09-14T21:21:28.300Z,1.40
2022-09-14T21:23:57.085Z,1.20
2022-09-14T21:26:25.530Z,1.48
2022-09-14T21:28:57.054Z,1.20
2022-09-14T21:31:24.966Z,1.33
2022-09-14T21:33:54.547Z,1.40
2022-09-14T21:36:27.014Z,1.20
2022-09-14T21:38:56.504Z,0.93
2022-09-14T21:41:25.672Z,1.00
2022-09-14T21:43:52.869Z,1.10
2022-09-14T21:46:20.362Z,0.90
2022-09-14T21:48:47.714Z,0.95
2022-09-14T21:51:29.748Z,0.80
2022-09-14T21:53:59.194Z,1.00
2022-09-14T21:56:28.718Z,0.93
2022-09-14T21:58:57.872Z,1.00
2022-09-14T22:01:25.598Z,1.10
2022-09-14T22:03:53.580Z,0.98
2022-09-14T22:06:22.973Z,1.02
2022-09-14T22:08:50.566Z,1.10
2022-09-14T22:11:25.746Z,0.98
2022-09-14T22:14:01.043Z,1.45
2022-09-14T22:16:29.761Z,1.20
2022-09-14T22:18:58.329Z,1.30
2022-09-14T22:21:28.857Z,1.40
2022-09-14T22:23:59.100Z,1.00
2022-09-14T22:26:28.222Z,1.00
2022-09-14T22:28:55.589Z,0.95
2022-09-14T22:31:23.440Z,1.30
2022-09-14T22:33:51.181Z,1.50
2022-09-14T22:36:17.942Z,1.40
2022-09-14T22:38:46.416Z,1.17
2022-09-14T22:41:17.521Z,1.30
2022-09-14T22:43:45.368Z,1.23
2022-09-14T22:46:12.836Z,1.10
2022-09-14T22:48:40.012Z,1.40
2022-09-14T22:51:08.625Z,1.17
2022-09-14T22:53:35.672Z,1.23
2022-09-14T22:56:09.487Z,1.13
2022-09-14T22:58:36.336Z,1.25
2022-09-14T23:01:08.452Z,1.10
2022-09-14T23:03:35.570Z,1.33
2022-09-14T23:06:03.149Z,1.30
2022-09-14T23:08:30.398Z,1.00
2022-09-14T23:10:57.271Z,1.02
2022-09-14T23:13:23.991Z,1.42
2022-09-14T23:15:50.667Z,1.50
2022-09-14T23:18:17.312Z,1.15
2022-09-14T23:20:44.892Z,0.82
2022-09-14T23:23:12.739Z,0.90
2022-09-14T23:25:40.736Z,0.80
2022-09-14T23:28:10.099Z,1.10
2022-09-14T23:30:37.116Z,1.00
2022-09-14T23:33:06.853Z,1.10
2022-09-14T23:35:37.039Z,1.00
2022-09-14T23:38:04.549Z,0.90
2022-09-14T23:40:31.302Z,1.10
2022-09-14T23:42:58.049Z,1.30
2022-09-14T23:45:24.743Z,1.30
2022-09-14T23:47:51.423Z,0.88
2022-09-14T23:50:18.892Z,1.05
2022-09-14T23:52:46.257Z,0.88
2022-09-14T23:55:13.485Z,1.00
2022-09-14T23:57:40.204Z,1.20
